createdAt,value
2023-02-12T00:04:54.114Z,3.10
2023-02-12T00:10:05.344Z,2.30
2023-02-12T00:15:16.310Z,1.57
2023-02-12T00:17:42.900Z,1.80
2023-02-12T00:20:09.793Z,2.40
2023-02-12T00:22:36.351Z,2.20
2023-02-12T00:27:47.266Z,2.33
2023-02-12T00:30:13.911Z,2.40
2023-02-12T00:32:41.010Z,2.90
2023-02-12T00:35:07.685Z,2.17
2023-02-12T00:37:34.781Z,2.17
2023-02-12T00:40:01.358Z,1.83
2023-02-12T00:42:28.490Z,2.00
2023-02-12T00:44:55.781Z,1.87
2023-02-12T00:47:22.356Z,2.03
2023-02-12T00:49:49.895Z,2.10
2023-02-12T00:55:00.552Z,2.07
2023-02-12T00:57:27.131Z,1.90
2023-02-12T00:59:53.782Z,2.13
2023-02-12T01:02:20.399Z,1.27
2023-02-12T01:07:31.035Z,1.70
2023-02-12T01:09:57.604Z,1.80
2023-02-12T01:12:24.246Z,1.87
2023-02-12T01:14:50.830Z,1.30
2023-02-12T01:20:01.762Z,1.30
2023-02-12T01:25:14.107Z,1.00
2023-02-12T01:27:40.644Z,1.23
2023-02-12T01:30:07.999Z,1.50
2023-02-12T01:32:35.005Z,1.67
2023-02-12T01:35:01.669Z,1.67
2023-02-12T01:37:28.213Z,1.37
2023-02-12T01:39:54.843Z,1.60
2023-02-12T01:42:21.457Z,1.30
2023-02-12T02:17:27.945Z,2.70
2023-02-12T02:19:57.419Z,2.90
2023-02-12T02:22:26.929Z,3.20
2023-02-12T02:24:57.581Z,3.10
2023-02-12T02:27:45.040Z,3.97
2023-02-12T02:30:11.794Z,3.30
2023-02-12T02:32:58.616Z,3.03
2023-02-12T02:38:33.072Z,3.10
2023-02-12T02:41:04.955Z,3.30
2023-02-12T02:43:33.574Z,2.87
2023-02-12T02:46:02.480Z,3.40
2023-02-12T02:48:32.425Z,3.50
2023-02-12T02:51:03.820Z,3.40
2023-02-12T02:53:31.620Z,3.10
2023-02-12T02:58:57.134Z,3.70
2023-02-12T03:01:31.452Z,3.70
2023-02-12T03:04:02.761Z,4.37
2023-02-12T03:06:29.362Z,3.70
2023-02-12T03:08:57.325Z,4.07
2023-02-12T03:11:27.378Z,4.40
2023-02-12T03:17:12.530Z,8.03
2023-02-12T03:20:02.164Z,7.43
2023-02-12T03:22:30.680Z,7.33
2023-02-12T03:25:04.803Z,6.43
2023-02-12T03:27:42.331Z,5.70
2023-02-12T03:33:12.959Z,5.30
2023-02-12T03:35:43.015Z,5.20
2023-02-12T03:38:13.848Z,4.77
2023-02-12T03:40:41.422Z,4.27
2023-02-12T03:46:17.515Z,4.33
2023-02-12T03:49:04.026Z,4.13
2023-02-12T03:51:35.014Z,4.43
2023-02-12T03:54:01.840Z,4.37
2023-02-12T03:59:23.561Z,4.33
2023-02-12T04:01:50.324Z,3.93
2023-02-12T04:04:17.139Z,3.97
2023-02-12T04:06:43.784Z,4.40
2023-02-12T04:09:10.813Z,4.17
2023-02-12T04:11:48.915Z,4.13
2023-02-12T04:14:34.130Z,3.97
2023-02-12T04:17:04.482Z,3.70
2023-02-12T04:19:51.600Z,4.37
2023-02-12T04:22:29.350Z,3.27
2023-02-12T04:24:59.410Z,3.40
2023-02-12T04:27:26.643Z,3.90
2023-02-12T04:29:53.619Z,3.90
2023-02-12T04:35:23.050Z,3.57
2023-02-12T04:40:41.049Z,2.80
2023-02-12T04:43:07.786Z,3.70
2023-02-12T04:45:34.739Z,4.73
2023-02-12T04:48:01.354Z,4.10
2023-02-12T04:50:28.287Z,4.00
2023-02-12T04:52:55.027Z,3.03
2023-02-12T04:55:21.562Z,3.60
2023-02-12T05:00:32.159Z,3.67
2023-02-12T05:05:43.090Z,3.53
2023-02-12T05:10:53.608Z,3.77
2023-02-12T05:16:05.265Z,3.10
2023-02-12T05:21:16.296Z,3.77
2023-02-12T05:23:42.894Z,3.70
2023-02-12T05:26:13.185Z,3.70
2023-02-12T05:28:39.840Z,4.43
2023-02-12T05:33:51.053Z,4.77
2023-02-12T05:36:18.608Z,5.37
2023-02-12T05:38:45.226Z,4.83
2023-02-12T05:41:12.810Z,4.60
2023-02-12T05:43:39.427Z,4.40
2023-02-12T05:46:06.289Z,5.80
2023-02-12T05:48:33.101Z,4.87
2023-02-12T05:51:12.861Z,4.67
2023-02-12T05:53:39.601Z,5.13
2023-02-12T05:56:13.172Z,5.37
2023-02-12T05:58:40.154Z,5.47
2023-02-12T06:01:10.847Z,5.90
2023-02-12T06:03:37.560Z,4.90
2023-02-12T06:06:04.247Z,5.77
2023-02-12T06:08:30.868Z,5.07
2023-02-12T06:13:44.319Z,7.17
2023-02-12T06:19:05.201Z,6.40
2023-02-12T06:21:31.925Z,6.50
2023-02-12T06:23:58.549Z,6.93
2023-02-12T06:26:25.356Z,6.40
2023-02-12T06:28:52.086Z,6.93
2023-02-12T06:31:21.938Z,5.57
2023-02-12T06:33:48.771Z,6.27
2023-02-12T06:36:15.346Z,5.50
2023-02-12T06:38:41.999Z,5.67
2023-02-12T06:41:08.561Z,6.00
2023-02-12T06:46:19.642Z,6.77
2023-02-12T06:48:46.243Z,6.23
2023-02-12T06:51:16.522Z,6.03
2023-02-12T06:53:43.359Z,6.70
2023-02-12T06:56:13.463Z,7.07
2023-02-12T06:58:40.641Z,7.37
2023-02-12T07:01:13.371Z,7.67
2023-02-12T07:03:43.150Z,6.37
2023-02-12T07:06:09.772Z,6.80
2023-02-12T07:08:36.441Z,7.80
2023-02-12T07:11:03.358Z,7.47
2023-02-12T07:13:30.217Z,9.77
2023-02-12T07:15:57.225Z,10.07
2023-02-12T07:18:24.042Z,11.00
2023-02-12T07:20:50.683Z,10.43
2023-02-12T07:23:18.516Z,10.20
2023-02-12T07:25:45.141Z,10.60
2023-02-12T07:28:11.824Z,9.60
2023-02-12T07:30:40.486Z,9.53
2023-02-12T07:33:08.409Z,8.60
2023-02-12T07:35:34.965Z,7.47
2023-02-12T07:38:01.618Z,8.13
2023-02-12T07:40:28.195Z,7.40
2023-02-12T07:42:55.780Z,9.47
2023-02-12T07:45:22.491Z,10.03
2023-02-12T07:47:50.045Z,9.83
2023-02-12T07:50:16.782Z,11.03
2023-02-12T07:52:43.404Z,12.67
2023-02-12T07:57:54.197Z,12.33
2023-02-12T08:03:05.099Z,9.07
2023-02-12T08:08:16.116Z,7.10
2023-02-12T08:13:27.077Z,6.40
2023-02-12T08:18:44.297Z,5.87
2023-02-12T08:21:11.767Z,5.40
2023-02-12T08:23:38.718Z,5.97
2023-02-12T08:29:02.371Z,4.70
2023-02-12T08:34:21.367Z,5.30
2023-02-12T08:36:48.708Z,6.07
2023-02-12T08:39:15.499Z,5.00
2023-02-12T08:41:45.375Z,4.97
2023-02-12T08:46:56.903Z,5.27
2023-02-12T08:49:24.521Z,5.47
2023-02-12T08:51:51.832Z,5.77
2023-02-12T08:54:20.041Z,5.50
2023-02-12T08:56:46.909Z,4.97
2023-02-12T08:59:14.112Z,5.87
2023-02-12T09:01:43.602Z,5.93
2023-02-12T09:04:18.262Z,5.87
2023-02-12T09:06:46.092Z,5.03
2023-02-12T09:09:12.781Z,3.73
2023-02-12T09:11:39.556Z,4.60
2023-02-12T09:14:06.838Z,4.13
2023-02-12T09:16:34.027Z,5.63
2023-02-12T09:19:00.845Z,3.20
2023-02-12T09:21:27.519Z,5.50
2023-02-12T09:23:54.270Z,5.90
2023-02-12T09:26:21.849Z,6.20
2023-02-12T09:28:49.913Z,6.17
2023-02-12T09:31:17.960Z,5.37
2023-02-12T09:33:45.326Z,4.47
2023-02-12T09:36:12.782Z,5.97
2023-02-12T09:38:39.541Z,3.13
2023-02-12T09:41:25.097Z,6.20
2023-02-12T09:43:53.081Z,5.83
2023-02-12T09:46:25.884Z,5.63
2023-02-12T09:49:09.951Z,5.87
2023-02-12T09:51:37.673Z,6.10
2023-02-12T09:54:30.371Z,6.17
2023-02-12T09:56:57.913Z,5.30
2023-02-12T09:59:27.659Z,5.70
2023-02-12T10:01:54.561Z,5.80
2023-02-12T10:04:21.620Z,6.07
2023-02-12T10:06:51.454Z,5.73
2023-02-12T10:09:33.607Z,5.83
2023-02-12T10:12:06.272Z,6.27
2023-02-12T10:14:42.420Z,5.97
2023-02-12T10:17:23.945Z,5.47
2023-02-12T10:20:01.183Z,5.47
2023-02-12T10:22:30.830Z,5.60
2023-02-12T10:25:17.967Z,5.70
2023-02-12T10:27:54.921Z,5.03
2023-02-12T10:30:25.671Z,4.83
2023-02-12T10:32:54.302Z,5.17
2023-02-12T10:35:21.376Z,5.07
2023-02-12T10:37:48.053Z,6.30
2023-02-12T10:40:18.811Z,6.40
2023-02-12T10:42:50.380Z,6.10
2023-02-12T10:45:40.207Z,5.33
2023-02-12T10:48:13.887Z,5.50
2023-02-12T10:50:44.968Z,4.87
2023-02-12T10:53:13.588Z,4.73
2023-02-12T10:55:40.174Z,5.33
2023-02-12T10:58:07.048Z,5.73
2023-02-12T11:03:24.364Z,6.50
2023-02-12T11:05:51.259Z,6.93
2023-02-12T11:08:39.318Z,6.13
2023-02-12T11:11:10.676Z,6.27
2023-02-12T11:13:37.656Z,6.53
2023-02-12T11:16:04.558Z,5.67
2023-02-12T11:21:23.914Z,6.70
2023-02-12T11:23:50.787Z,8.07
2023-02-12T11:26:20.450Z,6.13
2023-02-12T11:29:00.191Z,6.10
2023-02-12T11:31:34.052Z,5.27
2023-02-12T11:36:52.353Z,6.27
2023-02-12T11:39:19.160Z,5.67
2023-02-12T11:41:49.314Z,4.43
2023-02-12T11:44:35.223Z,4.43
2023-02-12T11:47:04.095Z,3.97
2023-02-12T11:49:32.053Z,2.30
2023-02-12T11:52:00.400Z,4.83
2023-02-12T11:54:27.555Z,5.23
2023-02-12T11:56:55.509Z,5.30
2023-02-12T11:59:35.639Z,5.60
2023-02-12T12:02:09.277Z,5.20
2023-02-12T12:04:36.680Z,3.97
2023-02-12T12:07:07.588Z,5.97
2023-02-12T12:09:37.217Z,4.53
2023-02-12T12:12:07.067Z,6.20
2023-02-12T12:14:56.080Z,6.03
2023-02-12T12:17:41.525Z,4.33
2023-02-12T12:20:16.402Z,5.80
2023-02-12T12:23:01.026Z,4.53
2023-02-12T12:25:28.138Z,6.83
2023-02-12T12:28:03.796Z,6.63
2023-02-12T12:33:52.979Z,5.90
2023-02-12T12:36:38.324Z,6.53
2023-02-12T12:39:21.574Z,7.30
2023-02-12T12:42:07.199Z,6.90
2023-02-12T12:44:34.115Z,7.53
2023-02-12T12:47:05.472Z,5.67
2023-02-12T12:49:39.401Z,4.53
2023-02-12T12:52:18.291Z,6.27
2023-02-12T12:55:02.352Z,5.67
2023-02-12T12:57:35.239Z,4.97
2023-02-12T13:00:24.337Z,6.50
2023-02-12T13:03:10.335Z,5.57
2023-02-12T13:05:37.492Z,4.63
2023-02-12T13:08:04.070Z,5.07
2023-02-12T13:10:38.572Z,5.80
2023-02-12T13:13:13.717Z,4.23
2023-02-12T13:15:56.303Z,4.10
2023-02-12T13:18:32.166Z,7.00
2023-02-12T13:23:48.345Z,4.77
2023-02-12T13:26:15.251Z,7.07
2023-02-12T13:28:52.827Z,4.27
2023-02-12T13:34:10.894Z,5.50
2023-02-12T13:39:31.031Z,4.43
2023-02-12T13:42:15.887Z,6.13
2023-02-12T13:44:48.600Z,5.33
2023-02-12T13:47:18.468Z,6.50
2023-02-12T13:50:03.875Z,5.57
2023-02-12T13:52:36.244Z,5.27
2023-02-12T13:55:12.243Z,6.37
2023-02-12T13:57:38.881Z,6.10
2023-02-12T14:00:09.025Z,6.60
2023-02-12T14:02:38.565Z,3.57
2023-02-12T14:05:15.222Z,5.23
2023-02-12T14:07:41.939Z,4.70
2023-02-12T14:10:09.301Z,4.70
2023-02-12T14:12:36.437Z,6.70
2023-02-12T14:15:21.895Z,5.83
2023-02-12T14:21:12.206Z,6.83
2023-02-12T14:23:39.548Z,6.83
2023-02-12T14:26:06.216Z,6.33
2023-02-12T14:28:34.701Z,7.17
2023-02-12T14:31:24.725Z,6.37
2023-02-12T14:34:12.026Z,6.30
2023-02-12T14:36:40.829Z,5.97
2023-02-12T14:39:19.408Z,7.73
2023-02-12T14:41:46.813Z,6.77
2023-02-12T14:44:27.465Z,5.97
2023-02-12T14:46:54.697Z,7.73
2023-02-12T14:49:27.412Z,7.13
2023-02-12T14:51:56.586Z,5.63
2023-02-12T14:54:40.951Z,5.93
2023-02-12T14:57:14.273Z,7.50
2023-02-12T14:59:41.860Z,6.43
2023-02-12T15:02:08.844Z,9.07
2023-02-12T15:04:37.870Z,7.23
2023-02-12T15:07:08.581Z,6.93
2023-02-12T15:12:36.713Z,7.50
2023-02-12T15:15:08.874Z,7.70
2023-02-12T15:17:37.306Z,9.83
2023-02-12T15:20:10.507Z,9.23
2023-02-12T15:22:39.289Z,8.60
2023-02-12T15:25:25.300Z,8.77
2023-02-12T15:27:53.821Z,8.47
2023-02-12T15:30:27.414Z,10.43
2023-02-12T15:32:55.741Z,9.87
2023-02-12T15:35:22.554Z,9.53
2023-02-12T15:37:49.362Z,9.03
2023-02-12T15:40:16.270Z,9.53
2023-02-12T15:42:55.962Z,6.67
2023-02-12T15:45:35.369Z,9.77
2023-02-12T15:48:02.294Z,10.57
2023-02-12T15:50:29.265Z,9.77
2023-02-12T15:52:56.728Z,9.93
2023-02-12T15:55:25.286Z,7.20
2023-02-12T15:57:52.545Z,8.63
2023-02-12T16:03:25.321Z,5.77
2023-02-12T16:05:52.234Z,6.93
2023-02-12T16:08:19.496Z,7.80
2023-02-12T16:10:51.335Z,8.63
2023-02-12T16:13:18.489Z,7.50
2023-02-12T16:15:47.331Z,8.47
2023-02-12T16:18:24.683Z,6.93
2023-02-12T16:21:04.536Z,8.40
2023-02-12T16:26:16.883Z,6.53
2023-02-12T16:31:30.275Z,7.00
2023-02-12T16:33:59.356Z,5.47
2023-02-12T16:36:27.467Z,7.63
2023-02-12T16:38:54.086Z,8.57
2023-02-12T16:41:21.665Z,7.87
2023-02-12T16:44:11.253Z,8.87
2023-02-12T16:46:45.379Z,8.53
2023-02-12T16:49:16.323Z,7.73
2023-02-12T16:51:43.147Z,7.30
2023-02-12T16:57:20.649Z,7.13
2023-02-12T16:59:47.413Z,9.87
2023-02-12T17:02:14.705Z,8.83
2023-02-12T17:04:41.745Z,9.20
2023-02-12T17:07:18.676Z,8.10
2023-02-12T17:09:45.471Z,6.40
2023-02-12T17:12:13.959Z,10.00
2023-02-12T17:14:42.086Z,9.27
2023-02-12T17:17:09.025Z,10.00
2023-02-12T17:19:36.937Z,10.90
2023-02-12T17:22:04.289Z,10.70
2023-02-12T17:24:31.675Z,12.27
2023-02-12T17:26:58.445Z,10.97
2023-02-12T17:29:28.202Z,11.40
2023-02-12T17:31:56.176Z,11.27
2023-02-12T17:34:23.331Z,14.37
2023-02-12T17:36:50.542Z,11.07
2023-02-12T17:39:17.684Z,12.77
2023-02-12T17:41:45.495Z,12.40
2023-02-12T17:44:14.523Z,13.60
2023-02-12T17:46:42.263Z,10.93
2023-02-12T17:49:08.919Z,11.57
2023-02-12T17:51:36.480Z,11.77
2023-02-12T17:54:03.270Z,10.53
2023-02-12T17:56:30.609Z,12.40
2023-02-12T17:58:57.664Z,11.57
2023-02-12T18:01:24.612Z,11.27
2023-02-12T18:03:53.718Z,10.73
2023-02-12T18:06:23.100Z,12.53
2023-02-12T18:08:49.910Z,10.67
2023-02-12T18:11:19.166Z,11.27
2023-02-12T18:16:32.651Z,11.20
2023-02-12T18:19:00.091Z,10.73
2023-02-12T18:21:28.098Z,10.50
2023-02-12T18:23:56.557Z,10.03
2023-02-12T18:26:23.511Z,9.47
2023-02-12T18:28:50.379Z,10.37
2023-02-12T18:31:19.688Z,10.23
2023-02-12T18:33:46.498Z,8.57
2023-02-12T18:36:15.135Z,9.80
2023-02-12T18:38:42.311Z,8.90
2023-02-12T18:43:54.826Z,6.90
2023-02-12T18:46:24.193Z,7.30
2023-02-12T18:48:51.112Z,5.93
2023-02-12T18:51:18.852Z,6.40
2023-02-12T18:53:46.481Z,5.87
2023-02-12T18:56:13.199Z,5.87
2023-02-12T18:58:40.687Z,5.50
2023-02-12T19:01:13.681Z,5.40
2023-02-12T19:03:40.526Z,5.63
2023-02-12T19:06:07.336Z,4.77
2023-02-12T19:08:34.359Z,5.83
2023-02-12T19:11:02.024Z,4.57
2023-02-12T19:13:28.723Z,5.63
2023-02-12T19:15:55.789Z,5.30
2023-02-12T19:18:22.751Z,4.87
2023-02-12T19:20:49.652Z,5.17
2023-02-12T19:26:05.658Z,4.80
2023-02-12T19:28:32.951Z,4.93
2023-02-12T19:31:01.148Z,5.20
2023-02-12T19:33:28.547Z,5.50
2023-02-12T19:38:42.876Z,5.03
2023-02-12T19:41:12.198Z,4.63
2023-02-12T19:43:39.038Z,5.20
2023-02-12T19:46:13.099Z,4.90
2023-02-12T19:48:40.098Z,5.30
2023-02-12T19:51:07.021Z,5.13
2023-02-12T19:53:33.956Z,5.20
2023-02-12T19:56:01.417Z,5.10
2023-02-12T19:58:30.303Z,3.50
2023-02-12T20:00:58.080Z,4.63
2023-02-12T20:03:26.606Z,4.40
2023-02-12T20:06:03.864Z,4.63
2023-02-12T20:08:34.276Z,4.70
2023-02-12T20:11:00.964Z,4.67
2023-02-12T20:13:27.824Z,4.80
2023-02-12T20:15:54.935Z,4.37
2023-02-12T20:18:21.733Z,5.27
2023-02-12T20:20:48.536Z,3.77
2023-02-12T20:23:15.136Z,4.50
2023-02-12T20:25:42.607Z,4.90
2023-02-12T20:28:09.294Z,5.10
2023-02-12T20:30:38.925Z,4.40
2023-02-12T20:33:05.732Z,3.63
2023-02-12T20:35:37.052Z,4.70
2023-02-12T20:38:04.902Z,4.40
2023-02-12T20:40:31.776Z,5.00
2023-02-12T20:42:59.133Z,4.60
2023-02-12T20:45:27.723Z,4.23
2023-02-12T20:47:54.766Z,5.10
2023-02-12T20:53:06.801Z,5.13
2023-02-12T20:55:33.942Z,4.33
2023-02-12T20:58:01.950Z,4.23
2023-02-12T21:00:30.804Z,4.60
2023-02-12T21:05:43.992Z,4.60
2023-02-12T21:08:11.408Z,4.13
2023-02-12T21:10:39.166Z,4.27
2023-02-12T21:13:05.776Z,3.47
2023-02-12T21:15:32.607Z,4.23
2023-02-12T21:18:00.470Z,3.90
2023-02-12T21:20:27.110Z,4.00
2023-02-12T21:22:54.946Z,3.57
2023-02-12T21:25:21.941Z,3.80
2023-02-12T21:27:48.741Z,3.60
2023-02-12T21:30:16.258Z,3.80
2023-02-12T21:32:42.924Z,3.70
2023-02-12T21:35:09.562Z,3.60
2023-02-12T21:37:36.638Z,3.37
2023-02-12T21:40:03.427Z,3.80
2023-02-12T21:42:31.088Z,3.60
2023-02-12T21:44:57.787Z,4.23
2023-02-12T21:47:27.339Z,3.80
2023-02-12T21:49:54.029Z,3.43
2023-02-12T21:52:21.271Z,2.60
2023-02-12T21:54:47.880Z,3.37
2023-02-12T21:57:19.016Z,3.20
2023-02-12T21:59:45.670Z,3.10
2023-02-12T22:02:12.275Z,2.90
2023-02-12T22:04:38.981Z,3.10
2023-02-12T22:07:05.615Z,2.70
2023-02-12T22:09:32.318Z,2.80
2023-02-12T22:11:58.891Z,2.97
2023-02-12T22:14:25.811Z,3.00
2023-02-12T22:16:52.491Z,3.07
2023-02-12T22:19:19.085Z,2.80
2023-02-12T22:21:45.775Z,2.53
2023-02-12T22:24:14.868Z,2.30
2023-02-12T22:26:41.557Z,2.40
2023-02-12T22:29:08.959Z,2.10
2023-02-12T22:31:36.219Z,2.37
2023-02-12T22:34:04.347Z,2.03
2023-02-12T22:39:15.417Z,2.40
2023-02-12T22:41:42.573Z,2.10
2023-02-12T22:44:09.893Z,2.90
2023-02-12T22:46:36.507Z,1.90
2023-02-12T22:51:47.993Z,2.23
2023-02-12T22:54:15.441Z,1.93
2023-02-12T22:56:42.294Z,2.00
2023-02-12T22:59:09.396Z,2.00
2023-02-12T23:04:20.390Z,2.50
2023-02-12T23:09:31.405Z,2.20
2023-02-12T23:11:58.083Z,2.60
2023-02-12T23:14:24.699Z,2.60
2023-02-12T23:16:51.327Z,1.90
2023-02-12T23:19:17.938Z,1.90
2023-02-12T23:21:44.709Z,1.83
2023-02-12T23:24:14.976Z,1.93
2023-02-12T23:26:41.722Z,1.87
2023-02-12T23:29:08.491Z,2.10
2023-02-12T23:31:35.180Z,1.80
2023-02-12T23:36:45.946Z,1.57
2023-02-12T23:39:12.603Z,2.03
2023-02-12T23:41:39.256Z,1.90
2023-02-12T23:44:05.800Z,1.40
2023-02-12T23:46:32.508Z,1.47
2023-02-12T23:48:59.260Z,1.73
2023-02-12T23:51:25.883Z,1.57
2023-02-12T23:53:52.473Z,1.40
2023-02-12T23:56:19.372Z,1.63
2023-02-12T23:58:45.922Z,2.40
